Johnstonville, California
Current Conditions -  °F | °C
As of 2:55 PM on Tuesday 21 Oct 2014 (Local Time) from KAAT Reporting Station
Few Clouds Few Clouds  
Wind Chill: 51°   Ceiling: Unl
Heat Index: 51°   Visibility: 10mi
Dew Point: 35°   Wind: 5mph
Humidity: 54%   Direction: NA
Pressure: 30.09"   Gusts: NA
Location:  40.5172°N, 120.68°W
Report Text: KAAT 212155Z AUTO VRB04KT 10SM FEW037 11/02 A3009 RMK AO2 SLP184 T01060017
Loading
Personal Weather Stations






























Interactive Weather Map
Tropical Storm Tracking
New forecast layout! Learn more

10-Day Weather Forecast

Advertisements
Track Severe Weather on mobile